sensor_id;sensor_type;location;lat;lon;timestamp;pressure;altitude;pressure_sealevel;temperature;humidity
19624;BME280;9959;49.798;9.928;2023-05-12T00:01:54;99437.06;;;10.80;100.00
19624;BME280;9959;49.798;9.928;2023-05-12T00:04:21;99434.34;;;10.80;100.00
19624;BME280;9959;49.798;9.928;2023-05-12T00:06:48;99442.63;;;10.85;100.00
19624;BME280;9959;49.798;9.928;2023-05-12T00:09:15;99442.22;;;10.81;100.00
19624;BME280;9959;49.798;9.928;2023-05-12T00:11:41;99440.97;;;10.84;100.00
19624;BME280;9959;49.798;9.928;2023-05-12T00:14:08;99443.66;;;10.84;100.00
19624;BME280;9959;49.798;9.928;2023-05-12T00:16:35;99443.28;;;10.80;100.00
19624;BME280;9959;49.798;9.928;2023-05-12T00:19:02;99440.75;;;10.85;100.00
19624;BME280;9959;49.798;9.928;2023-05-12T00:21:29;99442.19;;;10.88;100.00
19624;BME280;9959;49.798;9.928;2023-05-12T00:23:56;99447.56;;;10.88;100.00
19624;BME280;9959;49.798;9.928;2023-05-12T00:26:23;99442.56;;;10.92;100.00
19624;BME280;9959;49.798;9.928;2023-05-12T00:28:50;99444.16;;;10.99;100.00
19624;BME280;9959;49.798;9.928;2023-05-12T00:31:17;99436.78;;;10.88;100.00
19624;BME280;9959;49.798;9.928;2023-05-12T00:33:44;99437.53;;;10.95;100.00
19624;BME280;9959;49.798;9.928;2023-05-12T00:36:11;99438.16;;;10.97;100.00
19624;BME280;9959;49.798;9.928;2023-05-12T00:38:38;99438.38;;;10.96;100.00
19624;BME280;9959;49.798;9.928;2023-05-12T00:41:05;99432.63;;;10.92;100.00
19624;BME280;9959;49.798;9.928;2023-05-12T00:43:32;99429.16;;;10.85;100.00
19624;BME280;9959;49.798;9.928;2023-05-12T00:46:01;99428.09;;;10.86;100.00
19624;BME280;9959;49.798;9.928;2023-05-12T00:48:31;99432.00;;;10.90;100.00
19624;BME280;9959;49.798;9.928;2023-05-12T00:50:59;99430.50;;;10.94;100.00
19624;BME280;9959;49.798;9.928;2023-05-12T00:53:26;99427.44;;;10.91;100.00
19624;BME280;9959;49.798;9.928;2023-05-12T00:56:06;99421.38;;;10.95;100.00
19624;BME280;9959;49.798;9.928;2023-05-12T00:58:33;99428.31;;;10.84;100.00
19624;BME280;9959;49.798;9.928;2023-05-12T01:01:00;99427.22;;;10.92;100.00
19624;BME280;9959;49.798;9.928;2023-05-12T01:03:28;99430.50;;;10.94;100.00
19624;BME280;9959;49.798;9.928;2023-05-12T01:08:33;99431.41;;;10.88;100.00
19624;BME280;9959;49.798;9.928;2023-05-12T01:11:00;99430.16;;;10.91;100.00
19624;BME280;9959;49.798;9.928;2023-05-12T01:13:27;99432.63;;;10.92;100.00
19624;BME280;9959;49.798;9.928;2023-05-12T01:15:55;99430.38;;;10.89;100.00
19624;BME280;9959;49.798;9.928;2023-05-12T01:18:22;99434.03;;;10.95;100.00
19624;BME280;9959;49.798;9.928;2023-05-12T01:20:50;99430.50;;;10.94;100.00
19624;BME280;9959;49.798;9.928;2023-05-12T01:23:18;99430.16;;;10.91;100.00
19624;BME280;9959;49.798;9.928;2023-05-12T01:25:47;99428.50;;;10.90;100.00
19624;BME280;9959;49.798;9.928;2023-05-12T01:28:16;99430.97;;;10.91;100.00
19624;BME280;9959;49.798;9.928;2023-05-12T01:30:43;99430.41;;;10.82;100.00
19624;BME280;9959;49.798;9.928;2023-05-12T01:33:10;99435.16;;;10.87;100.00
19624;BME280;9959;49.798;9.928;2023-05-12T01:35:37;99436.72;;;10.95;100.00
19624;BME280;9959;49.798;9.928;2023-05-12T01:38:04;99429.31;;;10.90;100.00
19624;BME280;9959;49.798;9.928;2023-05-12T01:40:31;99438.16;;;10.97;100.00
19624;BME280;9959;49.798;9.928;2023-05-12T01:42:58;99429.25;;;10.97;100.00
19624;BME280;9959;49.798;9.928;2023-05-12T01:45:24;99428.88;;;10.93;100.00
19624;BME280;9959;49.798;9.928;2023-05-12T01:47:51;99433.50;;;10.86;100.00
19624;BME280;9959;49.798;9.928;2023-05-12T01:50:18;99441.28;;;10.94;100.00
19624;BME280;9959;49.798;9.928;2023-05-12T01:52:45;99445.88;;;10.94;100.00
19624;BME280;9959;49.798;9.928;2023-05-12T01:55:12;99442.19;;;10.88;100.00
19624;BME280;9959;49.798;9.928;2023-05-12T01:57:39;99446.97;;;10.86;100.00
19624;BME280;9959;49.798;9.928;2023-05-12T02:00:06;99443.84;;;10.89;100.00
19624;BME280;9959;49.798;9.928;2023-05-12T02:02:33;99452.56;;;10.84;100.00
19624;BME280;9959;49.798;9.928;2023-05-12T02:05:00;99442.63;;;10.85;100.00
19624;BME280;9959;49.798;9.928;2023-05-12T02:07:27;99438.88;;;10.86;100.00
19624;BME280;9959;49.798;9.928;2023-05-12T02:09:54;99446.09;;;10.92;100.00
19624;BME280;9959;49.798;9.928;2023-05-12T02:12:21;99448.56;;;10.94;100.00
19624;BME280;9959;49.798;9.928;2023-05-12T02:14:47;99444.88;;;10.88;100.00
19624;BME280;9959;49.798;9.928;2023-05-12T02:17:14;99448.19;;;10.90;100.00
19624;BME280;9959;49.798;9.928;2023-05-12T02:19:42;99454.75;;;10.94;100.00
19624;BME280;9959;49.798;9.928;2023-05-12T02:22:09;99449.47;;;10.81;100.00
19624;BME280;9959;49.798;9.928;2023-05-12T02:24:36;99446.22;;;10.72;100.00
19624;BME280;9959;49.798;9.928;2023-05-12T02:27:02;99456.78;;;10.74;100.00
19624;BME280;9959;49.798;9.928;2023-05-12T02:29:29;99452.66;;;10.71;100.00
19624;BME280;9959;49.798;9.928;2023-05-12T02:31:56;99446.44;;;10.71;100.00
19624;BME280;9959;49.798;9.928;2023-05-12T02:34:23;99451.78;;;10.77;100.00
19624;BME280;9959;49.798;9.928;2023-05-12T02:36:50;99450.16;;;10.70;100.00
19624;BME280;9959;49.798;9.928;2023-05-12T02:39:17;99446.00;;;10.74;100.00
19624;BME280;9959;49.798;9.928;2023-05-12T02:41:44;99448.09;;;10.72;100.00
19624;BME280;9959;49.798;9.928;2023-05-12T02:44:11;99442.22;;;10.81;100.00
19624;BME280;9959;49.798;9.928;2023-05-12T02:46:40;99449.56;;;10.68;100.00
19624;BME280;9959;49.798;9.928;2023-05-12T02:49:07;99439.81;;;10.67;100.00
19624;BME280;9959;49.798;9.928;2023-05-12T02:51:34;99440.22;;;10.70;100.00
19624;BME280;9959;49.798;9.928;2023-05-12T02:54:01;99446.88;;;10.68;100.00
19624;BME280;9959;49.798;9.928;2023-05-12T02:56:27;99438.53;;;10.76;100.00
19624;BME280;9959;49.798;9.928;2023-05-12T02:58:57;99446.50;;;10.64;100.00
19624;BME280;9959;49.798;9.928;2023-05-12T03:01:24;99437.81;;;10.62;100.00
19624;BME280;9959;49.798;9.928;2023-05-12T03:03:50;99439.81;;;10.67;100.00
19624;BME280;9959;49.798;9.928;2023-05-12T03:06:17;99437.91;;;10.74;100.00
19624;BME280;9959;49.798;9.928;2023-05-12T03:08:45;99431.59;;;10.62;100.00
19624;BME280;9959;49.798;9.928;2023-05-12T03:11:12;99441.31;;;10.63;100.00
19624;BME280;9959;49.798;9.928;2023-05-12T03:13:38;99432.47;;;10.56;100.00
19624;BME280;9959;49.798;9.928;2023-05-12T03:16:05;99444.25;;;10.61;100.00
19624;BME280;9959;49.798;9.928;2023-05-12T03:18:32;99441.16;;;10.58;100.00
19624;BME280;9959;49.798;9.928;2023-05-12T03:20:59;99442.00;;;10.51;100.00
19624;BME280;9959;49.798;9.928;2023-05-12T03:23:26;99439.06;;;10.60;100.00
19624;BME280;9959;49.798;9.928;2023-05-12T03:25:53;99440.06;;;10.65;100.00
19624;BME280;9959;49.798;9.928;2023-05-12T03:28:20;99442.38;;;10.62;100.00
19624;BME280;9959;49.798;9.928;2023-05-12T03:30:50;99438.34;;;10.71;100.00
19624;BME280;9959;49.798;9.928;2023-05-12T03:33:17;99434.00;;;10.70;100.00
19624;BME280;9959;49.798;9.928;2023-05-12T03:35:43;99438.25;;;10.59;100.00
19624;BME280;9959;49.798;9.928;2023-05-12T03:38:10;99442.38;;;10.62;100.00
19624;BME280;9959;49.798;9.928;2023-05-12T03:40:37;99436.97;;;10.62;100.00
19624;BME280;9959;49.798;9.928;2023-05-12T03:43:04;99436.91;;;10.68;100.00
19624;BME280;9959;49.798;9.928;2023-05-12T03:45:31;99443.22;;;10.56;100.00
19624;BME280;9959;49.798;9.928;2023-05-12T03:47:58;99431.75;;;10.67;100.00
19624;BME280;9959;49.798;9.928;2023-05-12T03:50:24;99443.00;;;10.57;100.00
19624;BME280;9959;49.798;9.928;2023-05-12T03:52:51;99436.38;;;10.60;100.00
19624;BME280;9959;49.798;9.928;2023-05-12T03:55:21;99430.94;;;10.66;100.00
19624;BME280;9959;49.798;9.928;2023-05-12T03:57:48;99443.59;;;10.66;100.00
19624;BME280;9959;49.798;9.928;2023-05-12T04:00:16;99443.53;;;10.72;100.00
19624;BME280;9959;49.798;9.928;2023-05-12T04:02:43;99447.91;;;10.67;100.00
19624;BME280;9959;49.798;9.928;2023-05-12T04:05:10;99440.44;;;10.69;100.00
19624;BME280;9959;49.798;9.928;2023-05-12T04:07:37;99447.69;;;10.68;100.00
19624;BME280;9959;49.798;9.928;2023-05-12T04:10:05;99442.97;;;10.64;100.00
19624;BME280;9959;49.798;9.928;2023-05-12T04:12:32;99439.41;;;10.70;100.00
19624;BME280;9959;49.798;9.928;2023-05-12T04:14:59;99455.13;;;10.73;100.00
19624;BME280;9959;49.798;9.928;2023-05-12T04:17:26;99455.56;;;10.70;100.00
19624;BME280;9959;49.798;9.928;2023-05-12T04:19:54;99455.56;;;10.70;100.00
19624;BME280;9959;49.798;9.928;2023-05-12T04:22:20;99440.63;;;10.74;100.00
19624;BME280;9959;49.798;9.928;2023-05-12T04:24:51;99447.19;;;10.84;100.00
19624;BME280;9959;49.798;9.928;2023-05-12T04:27:17;99452.97;;;10.88;100.00
19624;BME280;9959;49.798;9.928;2023-05-12T04:29:44;99448.13;;;10.97;100.00
19624;BME280;9959;49.798;9.928;2023-05-12T04:32:11;99447.16;;;10.91;100.00
19624;BME280;9959;49.798;9.928;2023-05-12T04:34:38;99451.72;;;10.91;100.00
19624;BME280;9959;49.798;9.928;2023-05-12T04:37:05;99450.38;;;11.00;100.00
19624;BME280;9959;49.798;9.928;2023-05-12T04:39:32;99457.47;;;10.94;100.00
19624;BME280;9959;49.798;9.928;2023-05-12T04:42:00;99457.47;;;10.94;100.00
19624;BME280;9959;49.798;9.928;2023-05-12T04:44:30;99458.34;;;10.88;100.00
19624;BME280;9959;49.798;9.928;2023-05-12T04:46:56;99459.56;;;10.92;100.00
19624;BME280;9959;49.798;9.928;2023-05-12T04:49:23;99458.28;;;10.95;100.00
19624;BME280;9959;49.798;9.928;2023-05-12T04:51:50;99461.38;;;10.98;100.00
19624;BME280;9959;49.798;9.928;2023-05-12T04:54:17;99461.53;;;11.03;100.00
19624;BME280;9959;49.798;9.928;2023-05-12T04:56:44;99460.34;;;10.99;100.00
19624;BME280;9959;49.798;9.928;2023-05-12T04:59:11;99462.81;;;11.01;100.00
19624;BME280;9959;49.798;9.928;2023-05-12T05:01:41;99458.41;;;11.06;100.00
19624;BME280;9959;49.798;9.928;2023-05-12T05:04:08;99460.50;;;11.04;100.00
19624;BME280;9959;49.798;9.928;2023-05-12T05:06:35;99470.25;;;11.05;100.00
19624;BME280;9959;49.798;9.928;2023-05-12T05:09:02;99466.06;;;11.09;100.00
19624;BME280;9959;49.798;9.928;2023-05-12T05:11:29;99472.69;;;11.13;100.00
19624;BME280;9959;49.798;9.928;2023-05-12T05:13:56;99464.28;;;11.22;100.00
19624;BME280;9959;49.798;9.928;2023-05-12T05:16:23;99470.47;;;11.29;100.00
19624;BME280;9959;49.798;9.928;2023-05-12T05:18:50;99467.75;;;11.29;100.00
19624;BME280;9959;49.798;9.928;2023-05-12T05:21:17;99471.72;;;11.26;100.00
19624;BME280;9959;49.798;9.928;2023-05-12T05:23:44;99465.69;;;11.31;100.00
19624;BME280;9959;49.798;9.928;2023-05-12T05:26:11;99475.59;;;11.37;100.00
19624;BME280;9959;49.798;9.928;2023-05-12T05:28:38;99480.81;;;11.32;100.00
19624;BME280;9959;49.798;9.928;2023-05-12T05:31:05;99480.63;;;11.27;100.00
19624;BME280;9959;49.798;9.928;2023-05-12T05:33:33;99480.03;;;11.25;100.00
19624;BME280;9959;49.798;9.928;2023-05-12T05:35:59;99479.00;;;11.26;100.00
19624;BME280;9959;49.798;9.928;2023-05-12T05:38:26;99487.03;;;11.32;100.00
19624;BME280;9959;49.798;9.928;2023-05-12T05:40:53;99483.13;;;11.28;100.00
19624;BME280;9959;49.798;9.928;2023-05-12T05:43:21;99480.38;;;11.35;100.00
19624;BME280;9959;49.798;9.928;2023-05-12T05:45:49;99487.63;;;11.34;100.00
19624;BME280;9959;49.798;9.928;2023-05-12T05:48:16;99496.56;;;11.35;100.00
19624;BME280;9959;49.798;9.928;2023-05-12T05:50:43;99491.38;;;11.33;100.00
19624;BME280;9959;49.798;9.928;2023-05-12T05:53:10;99481.19;;;11.35;100.00
19624;BME280;9959;49.798;9.928;2023-05-12T05:55:37;99486.97;;;11.39;100.00
19624;BME280;9959;49.798;9.928;2023-05-12T05:58:04;99491.50;;;11.45;100.00
19624;BME280;9959;49.798;9.928;2023-05-12T06:00:31;99486.09;;;11.45;100.00
19624;BME280;9959;49.798;9.928;2023-05-12T06:02:57;99491.06;;;11.48;100.00
19624;BME280;9959;49.798;9.928;2023-05-12T06:05:24;99487.44;;;11.54;100.00
19624;BME280;9959;49.798;9.928;2023-05-12T06:07:51;99494.34;;;11.50;100.00
19624;BME280;9959;49.798;9.928;2023-05-12T06:10:18;99499.69;;;11.57;100.00
19624;BME280;9959;49.798;9.928;2023-05-12T06:12:45;99493.91;;;11.53;100.00
19624;BME280;9959;49.798;9.928;2023-05-12T06:15:12;99496.22;;;11.49;100.00
19624;BME280;9959;49.798;9.928;2023-05-12T06:17:39;99496.38;;;11.54;100.00
19624;BME280;9959;49.798;9.928;2023-05-12T06:20:07;99496.16;;;11.56;100.00
19624;BME280;9959;49.798;9.928;2023-05-12T06:22:34;99494.06;;;11.58;100.00
19624;BME280;9959;49.798;9.928;2023-05-12T06:25:01;99496.75;;;11.58;100.00
19624;BME280;9959;49.798;9.928;2023-05-12T06:27:29;99484.66;;;11.67;100.00
19624;BME280;9959;49.798;9.928;2023-05-12T06:29:56;99491.94;;;11.85;100.00
19624;BME280;9959;49.798;9.928;2023-05-12T06:32:23;99495.75;;;11.77;100.00
19624;BME280;9959;49.798;9.928;2023-05-12T06:34:49;99494.09;;;12.01;100.00
19624;BME280;9959;49.798;9.928;2023-05-12T06:37:16;99500.88;;;12.04;100.00
19624;BME280;9959;49.798;9.928;2023-05-12T06:39:43;99501.63;;;12.11;100.00
19624;BME280;9959;49.798;9.928;2023-05-12T06:42:10;99503.03;;;12.32;100.00
19624;BME280;9959;49.798;9.928;2023-05-12T06:44:37;99495.16;;;12.48;100.00
19624;BME280;9959;49.798;9.928;2023-05-12T06:47:07;99506.50;;;12.57;100.00
19624;BME280;9959;49.798;9.928;2023-05-12T06:49:34;99507.31;;;12.39;100.00
19624;BME280;9959;49.798;9.928;2023-05-12T06:52:04;99508.22;;;12.51;100.00
19624;BME280;9959;49.798;9.928;2023-05-12T06:54:32;99508.28;;;12.45;100.00
19624;BME280;9959;49.798;9.928;2023-05-12T06:56:59;99501.78;;;12.34;100.00
19624;BME280;9959;49.798;9.928;2023-05-12T06:59:26;99500.81;;;12.59;100.00
19624;BME280;9959;49.798;9.928;2023-05-12T07:01:55;99498.59;;;12.56;100.00
19624;BME280;9959;49.798;9.928;2023-05-12T07:04:22;99510.22;;;12.86;100.00
19624;BME280;9959;49.798;9.928;2023-05-12T07:06:52;99505.09;;;12.96;100.00
19624;BME280;9959;49.798;9.928;2023-05-12T07:09:18;99506.38;;;12.94;100.00
19624;BME280;9959;49.798;9.928;2023-05-12T07:11:46;99506.66;;;12.74;100.00
19624;BME280;9959;49.798;9.928;2023-05-12T07:14:13;99508.47;;;12.80;100.00
19624;BME280;9959;49.798;9.928;2023-05-12T07:16:39;99509.16;;;12.87;100.00
19624;BME280;9959;49.798;9.928;2023-05-12T07:19:06;99510.22;;;12.86;100.00
19624;BME280;9959;49.798;9.928;2023-05-12T07:21:35;99504.94;;;12.79;100.00
19624;BME280;9959;49.798;9.928;2023-05-12T07:24:02;99506.28;;;13.00;100.00
19624;BME280;9959;49.798;9.928;2023-05-12T07:26:31;99500.31;;;13.10;98.98
19624;BME280;9959;49.798;9.928;2023-05-12T07:28:59;99500.53;;;13.38;96.62
19624;BME280;9959;49.798;9.928;2023-05-12T07:31:26;99506.91;;;13.67;94.49
19624;BME280;9959;49.798;9.928;2023-05-12T07:33:54;99507.84;;;13.61;93.43
19624;BME280;9959;49.798;9.928;2023-05-12T07:36:21;99505.00;;;13.56;93.33
19624;BME280;9959;49.798;9.928;2023-05-12T07:38:48;99505.34;;;13.71;91.79
19624;BME280;9959;49.798;9.928;2023-05-12T07:41:14;99508.53;;;13.92;91.21
19624;BME280;9959;49.798;9.928;2023-05-12T07:43:43;99510.91;;;14.40;90.93
19624;BME280;9959;49.798;9.928;2023-05-12T07:46:10;99504.97;;;14.66;88.69
19624;BME280;9959;49.798;9.928;2023-05-12T07:48:36;99503.59;;;14.80;88.29
19624;BME280;9959;49.798;9.928;2023-05-12T07:51:06;99504.81;;;14.33;90.16
19624;BME280;9959;49.798;9.928;2023-05-12T07:53:33;99511.66;;;14.47;90.04
19624;BME280;9959;49.798;9.928;2023-05-12T07:56:01;99502.31;;;14.31;91.22
19624;BME280;9959;49.798;9.928;2023-05-12T07:58:28;99509.22;;;13.99;90.10
19624;BME280;9959;49.798;9.928;2023-05-12T08:00:55;99507.34;;;13.87;91.30
19624;BME280;9959;49.798;9.928;2023-05-12T08:03:24;99508.69;;;14.25;89.53
19624;BME280;9959;49.798;9.928;2023-05-12T08:05:51;99508.69;;;14.48;89.18
19624;BME280;9959;49.798;9.928;2023-05-12T08:08:18;99512.47;;;14.24;90.32
19624;BME280;9959;49.798;9.928;2023-05-12T08:10:45;99513.66;;;14.28;89.79
19624;BME280;9959;49.798;9.928;2023-05-12T08:13:14;99521.03;;;13.93;90.65
19624;BME280;9959;49.798;9.928;2023-05-12T08:15:41;99523.22;;;13.96;89.45
19624;BME280;9959;49.798;9.928;2023-05-12T08:18:08;99520.34;;;14.26;88.69
19624;BME280;9959;49.798;9.928;2023-05-12T08:20:35;99509.44;;;14.20;88.94
19624;BME280;9959;49.798;9.928;2023-05-12T08:23:02;99519.34;;;14.15;89.38
19624;BME280;9959;49.798;9.928;2023-05-12T08:25:28;99515.75;;;14.38;88.63
19624;BME280;9959;49.798;9.928;2023-05-12T08:27:56;99515.75;;;14.26;90.52
19624;BME280;9959;49.798;9.928;2023-05-12T08:30:25;99521.00;;;14.16;90.23
19624;BME280;9959;49.798;9.928;2023-05-12T08:32:53;99522.06;;;14.15;92.60
19624;BME280;9959;49.798;9.928;2023-05-12T08:35:21;99528.72;;;14.24;92.25
19624;BME280;9959;49.798;9.928;2023-05-12T08:37:48;99527.00;;;14.06;92.89
19624;BME280;9959;49.798;9.928;2023-05-12T08:40:25;99526.06;;;14.01;92.55
19624;BME280;9959;49.798;9.928;2023-05-12T08:43:17;99528.06;;;14.17;92.42
19624;BME280;9959;49.798;9.928;2023-05-12T08:45:48;99530.59;;;14.35;92.38
19624;BME280;9959;49.798;9.928;2023-05-12T08:48:17;99532.28;;;14.01;93.60
19624;BME280;9959;49.798;9.928;2023-05-12T08:50:47;99537.00;;;14.06;93.90
19624;BME280;9959;49.798;9.928;2023-05-12T08:53:17;99536.78;;;14.19;91.53
19624;BME280;9959;49.798;9.928;2023-05-12T08:55:45;99542.78;;;14.09;92.82
19624;BME280;9959;49.798;9.928;2023-05-12T08:58:34;99544.28;;;14.29;92.99
19624;BME280;9959;49.798;9.928;2023-05-12T09:01:07;99542.03;;;14.49;90.25
19624;BME280;9959;49.798;9.928;2023-05-12T09:03:34;99543.53;;;14.56;91.09
19624;BME280;9959;49.798;9.928;2023-05-12T09:06:01;99545.56;;;14.38;90.52
19624;BME280;9959;49.798;9.928;2023-05-12T09:08:29;99556.06;;;14.34;89.06
19624;BME280;9959;49.798;9.928;2023-05-12T09:10:59;99545.50;;;14.21;90.58
19624;BME280;9959;49.798;9.928;2023-05-12T09:16:22;99548.00;;;14.63;89.15
19624;BME280;9959;49.798;9.928;2023-05-12T09:18:55;99556.16;;;14.51;88.29
19624;BME280;9959;49.798;9.928;2023-05-12T09:21:23;99552.28;;;14.35;89.11
19624;BME280;9959;49.798;9.928;2023-05-12T09:23:55;99561.59;;;14.28;90.68
19624;BME280;9959;49.798;9.928;2023-05-12T09:26:23;99558.63;;;14.64;89.24
19624;BME280;9959;49.798;9.928;2023-05-12T09:29:02;99555.28;;;14.74;89.77
19624;BME280;9959;49.798;9.928;2023-05-12T09:31:34;99557.81;;;14.92;91.13
19624;BME280;9959;49.798;9.928;2023-05-12T09:34:08;99561.84;;;14.78;89.77
19624;BME280;9959;49.798;9.928;2023-05-12T09:36:35;99564.84;;;14.65;90.21
19624;BME280;9959;49.798;9.928;2023-05-12T09:39:04;99552.84;;;14.61;90.54
19624;BME280;9959;49.798;9.928;2023-05-12T09:44:03;99557.66;;;15.27;89.45
19624;BME280;9959;49.798;9.928;2023-05-12T09:46:30;99553.72;;;15.06;88.23
19624;BME280;9959;49.798;9.928;2023-05-12T09:48:58;99551.94;;;15.57;88.09
19624;BME280;9959;49.798;9.928;2023-05-12T09:51:25;99553.06;;;15.61;87.33
19624;BME280;9959;49.798;9.928;2023-05-12T09:53:52;99559.56;;;15.60;87.33
19624;BME280;9959;49.798;9.928;2023-05-12T09:56:19;99566.16;;;15.98;85.84
19624;BME280;9959;49.798;9.928;2023-05-12T09:58:48;99567.50;;;15.78;83.64
19624;BME280;9959;49.798;9.928;2023-05-12T10:01:17;99567.72;;;15.60;84.97
19624;BME280;9959;49.798;9.928;2023-05-12T10:03:54;99554.13;;;15.60;83.62
19624;BME280;9959;49.798;9.928;2023-05-12T10:06:24;99558.03;;;15.19;85.72
19624;BME280;9959;49.798;9.928;2023-05-12T10:09:27;99555.84;;;15.49;86.95
19624;BME280;9959;49.798;9.928;2023-05-12T10:11:58;99554.09;;;15.27;85.97
19624;BME280;9959;49.798;9.928;2023-05-12T10:14:25;99556.59;;;15.95;85.64
19624;BME280;9959;49.798;9.928;2023-05-12T10:16:53;99546.41;;;15.85;86.45
19624;BME280;9959;49.798;9.928;2023-05-12T10:19:21;99556.13;;;15.81;86.77
19624;BME280;9959;49.798;9.928;2023-05-12T10:21:49;99560.47;;;15.49;86.28
19624;BME280;9959;49.798;9.928;2023-05-12T10:24:16;99561.47;;;15.60;85.51
19624;BME280;9959;49.798;9.928;2023-05-12T10:26:43;99560.41;;;15.77;85.32
19624;BME280;9959;49.798;9.928;2023-05-12T10:29:11;99555.66;;;15.22;86.65
19624;BME280;9959;49.798;9.928;2023-05-12T10:31:38;99561.66;;;15.24;84.58
19624;BME280;9959;49.798;9.928;2023-05-12T10:34:05;99558.50;;;15.61;84.76
19624;BME280;9959;49.798;9.928;2023-05-12T10:36:45;99569.72;;;15.81;83.17
19624;BME280;9959;49.798;9.928;2023-05-12T10:39:13;99566.81;;;15.88;79.48
19624;BME280;9959;49.798;9.928;2023-05-12T10:41:43;99569.78;;;15.86;78.21
19624;BME280;9959;49.798;9.928;2023-05-12T10:44:10;99572.94;;;15.78;80.08
19624;BME280;9959;49.798;9.928;2023-05-12T10:46:37;99571.13;;;15.84;81.63
19624;BME280;9959;49.798;9.928;2023-05-12T10:51:33;99569.06;;;15.57;85.73
19624;BME280;9959;49.798;9.928;2023-05-12T10:54:03;99578.28;;;15.73;83.89
19624;BME280;9959;49.798;9.928;2023-05-12T10:56:41;99569.94;;;16.13;84.84
19624;BME280;9959;49.798;9.928;2023-05-12T10:59:17;99573.81;;;16.39;83.78
19624;BME280;9959;49.798;9.928;2023-05-12T11:04:39;99572.38;;;16.15;82.86
19624;BME280;9959;49.798;9.928;2023-05-12T11:07:08;99577.09;;;16.41;80.61
19624;BME280;9959;49.798;9.928;2023-05-12T11:09:46;99572.25;;;16.05;78.98
19624;BME280;9959;49.798;9.928;2023-05-12T11:12:25;99581.19;;;16.44;80.55
19624;BME280;9959;49.798;9.928;2023-05-12T11:14:53;99571.69;;;16.24;79.24
19624;BME280;9959;49.798;9.928;2023-05-12T11:17:20;99570.63;;;16.86;79.19
19624;BME280;9959;49.798;9.928;2023-05-12T11:19:48;99569.81;;;16.64;78.39
19624;BME280;9959;49.798;9.928;2023-05-12T11:22:18;99569.34;;;16.94;75.63
19624;BME280;9959;49.798;9.928;2023-05-12T11:24:46;99567.28;;;17.06;73.12
19624;BME280;9959;49.798;9.928;2023-05-12T11:27:16;99569.97;;;17.27;72.13
19624;BME280;9959;49.798;9.928;2023-05-12T11:29:44;99576.56;;;17.64;71.37
19624;BME280;9959;49.798;9.928;2023-05-12T11:32:20;99570.75;;;17.55;70.32
19624;BME280;9959;49.798;9.928;2023-05-12T11:34:47;99577.84;;;18.20;68.66
19624;BME280;9959;49.798;9.928;2023-05-12T11:37:14;99577.69;;;18.42;69.02
19624;BME280;9959;49.798;9.928;2023-05-12T11:39:40;99568.81;;;17.77;68.30
19624;BME280;9959;49.798;9.928;2023-05-12T11:42:07;99579.31;;;17.96;68.36
19624;BME280;9959;49.798;9.928;2023-05-12T11:44:48;99572.63;;;17.76;69.09
19624;BME280;9959;49.798;9.928;2023-05-12T11:47:18;99569.28;;;18.01;68.18
19624;BME280;9959;49.798;9.928;2023-05-12T11:49:50;99564.50;;;17.86;67.84
19624;BME280;9959;49.798;9.928;2023-05-12T11:52:18;99567.78;;;16.76;70.70
19624;BME280;9959;49.798;9.928;2023-05-12T11:54:59;99572.44;;;17.02;71.76
19624;BME280;9959;49.798;9.928;2023-05-12T11:57:31;99562.69;;;16.63;71.14
19624;BME280;9959;49.798;9.928;2023-05-12T12:00:00;99563.34;;;16.70;70.99
19624;BME280;9959;49.798;9.928;2023-05-12T12:02:27;99573.16;;;17.46;68.95
19624;BME280;9959;49.798;9.928;2023-05-12T12:04:55;99563.75;;;17.05;70.34
19624;BME280;9959;49.798;9.928;2023-05-12T12:07:32;99569.69;;;17.56;69.76
19624;BME280;9959;49.798;9.928;2023-05-12T12:10:13;99569.19;;;17.32;68.02
19624;BME280;9959;49.798;9.928;2023-05-12T12:12:41;99569.09;;;17.49;66.55
19624;BME280;9959;49.798;9.928;2023-05-12T12:15:09;99566.84;;;18.05;66.06
19624;BME280;9959;49.798;9.928;2023-05-12T12:17:36;99578.91;;;17.50;66.91
19624;BME280;9959;49.798;9.928;2023-05-12T12:20:03;99573.84;;;17.96;64.77
19624;BME280;9959;49.798;9.928;2023-05-12T12:22:30;99574.19;;;17.67;64.00
19624;BME280;9959;49.798;9.928;2023-05-12T12:25:01;99576.81;;;17.62;64.75
19624;BME280;9959;49.798;9.928;2023-05-12T12:27:28;99576.25;;;17.87;65.05
19624;BME280;9959;49.798;9.928;2023-05-12T12:29:55;99581.88;;;17.75;64.45
19624;BME280;9959;49.798;9.928;2023-05-12T12:32:22;99576.19;;;17.77;61.94
19624;BME280;9959;49.798;9.928;2023-05-12T12:34:49;99574.41;;;17.98;61.29
19624;BME280;9959;49.798;9.928;2023-05-12T12:37:16;99583.63;;;17.59;62.53
19624;BME280;9959;49.798;9.928;2023-05-12T12:39:43;99580.53;;;18.15;62.50
19624;BME280;9959;49.798;9.928;2023-05-12T12:42:09;99588.06;;;17.98;62.17
19624;BME280;9959;49.798;9.928;2023-05-12T12:44:36;99582.28;;;18.36;61.24
19624;BME280;9959;49.798;9.928;2023-05-12T12:47:03;99578.00;;;18.50;60.72
19624;BME280;9959;49.798;9.928;2023-05-12T12:49:30;99576.56;;;18.85;60.22
19624;BME280;9959;49.798;9.928;2023-05-12T12:51:57;99575.84;;;19.35;58.02
19624;BME280;9959;49.798;9.928;2023-05-12T12:54:24;99570.72;;;19.64;56.11
19624;BME280;9959;49.798;9.928;2023-05-12T12:56:53;99567.09;;;19.28;57.44
19624;BME280;9959;49.798;9.928;2023-05-12T12:59:21;99573.94;;;19.36;56.29
19624;BME280;9959;49.798;9.928;2023-05-12T13:01:48;99572.59;;;19.48;56.28
19624;BME280;9959;49.798;9.928;2023-05-12T13:04:15;99575.63;;;19.57;54.52
19624;BME280;9959;49.798;9.928;2023-05-12T13:06:47;99576.00;;;18.93;56.03
19624;BME280;9959;49.798;9.928;2023-05-12T13:09:14;99573.25;;;18.88;55.43
19624;BME280;9959;49.798;9.928;2023-05-12T13:11:45;99578.47;;;18.32;57.93
19624;BME280;9959;49.798;9.928;2023-05-12T13:14:12;99576.13;;;18.09;57.63
19624;BME280;9959;49.798;9.928;2023-05-12T13:16:39;99579.97;;;18.13;57.59
19624;BME280;9959;49.798;9.928;2023-05-12T13:19:06;99576.44;;;17.75;58.41
19624;BME280;9959;49.798;9.928;2023-05-12T13:21:33;99573.47;;;17.77;59.16
19624;BME280;9959;49.798;9.928;2023-05-12T13:24:00;99579.56;;;17.62;59.79